createdAt,value
2023-04-21T00:02:14.778Z,100.00
2023-04-21T00:05:27.454Z,100.00
2023-04-21T00:08:40.791Z,100.00
2023-04-21T00:11:52.785Z,100.00
2023-04-21T00:15:04.950Z,100.00
2023-04-21T00:18:18.141Z,100.00
2023-04-21T00:21:30.212Z,100.00
2023-04-21T00:24:42.307Z,100.00
2023-04-21T00:27:54.464Z,100.00
2023-04-21T00:31:06.572Z,100.00
2023-04-21T00:34:18.737Z,100.00
2023-04-21T00:37:31.308Z,100.00
2023-04-21T00:40:43.351Z,100.00
2023-04-21T00:44:14.308Z,100.00
2023-04-21T00:47:26.903Z,100.00
2023-04-21T00:50:40.084Z,100.00
2023-04-21T00:53:53.647Z,100.00
2023-04-21T00:57:08.037Z,100.00
2023-04-21T01:00:23.071Z,100.00
2023-04-21T01:03:35.642Z,100.00
2023-04-21T01:06:50.126Z,100.00
2023-04-21T01:10:02.169Z,100.00
2023-04-21T01:13:14.782Z,100.00
2023-04-21T01:16:28.172Z,100.00
2023-04-21T01:19:43.608Z,100.00
2023-04-21T01:22:56.019Z,100.00
2023-04-21T01:26:10.275Z,100.00
2023-04-21T01:29:22.718Z,100.00
2023-04-21T01:32:36.300Z,100.00
2023-04-21T01:35:49.162Z,100.00
2023-04-21T01:39:03.132Z,100.00
2023-04-21T01:42:15.463Z,100.00
2023-04-21T01:45:27.504Z,100.00
2023-04-21T01:48:40.421Z,100.00
2023-04-21T01:51:52.593Z,100.00
2023-04-21T01:55:06.267Z,100.00
2023-04-21T01:58:19.472Z,100.00
2023-04-21T02:01:31.725Z,100.00
2023-04-21T02:04:43.956Z,100.00
2023-04-21T02:07:56.249Z,100.00
2023-04-21T02:11:10.296Z,100.00
2023-04-21T02:14:24.305Z,100.00
2023-04-21T02:17:36.566Z,100.00
2023-04-21T02:20:48.900Z,100.00
2023-04-21T02:24:01.119Z,100.00
2023-04-21T02:27:13.376Z,100.00
2023-04-21T02:30:25.802Z,100.00
2023-04-21T02:33:38.008Z,100.00
2023-04-21T02:36:50.021Z,100.00
2023-04-21T02:40:01.942Z,100.00
2023-04-21T02:43:15.831Z,100.00
2023-04-21T02:46:27.802Z,100.00
2023-04-21T02:49:39.973Z,100.00
2023-04-21T02:52:52.050Z,100.00
2023-04-21T02:56:05.383Z,100.00
2023-04-21T02:59:18.400Z,100.00
2023-04-21T03:02:32.790Z,100.00
2023-04-21T03:05:44.984Z,100.00
2023-04-21T03:08:57.080Z,100.00
2023-04-21T03:12:11.431Z,100.00
2023-04-21T03:15:24.111Z,100.00
2023-04-21T03:18:36.691Z,100.00
2023-04-21T03:21:48.739Z,100.00
2023-04-21T03:25:00.811Z,100.00
2023-04-21T03:28:13.846Z,100.00
2023-04-21T03:31:25.948Z,100.00
2023-04-21T03:34:38.186Z,100.00
2023-04-21T03:37:50.453Z,100.00
2023-04-21T03:41:02.576Z,100.00
2023-04-21T03:44:14.682Z,100.00
2023-04-21T03:47:26.765Z,100.00
2023-04-21T03:50:38.980Z,100.00
2023-04-21T03:53:51.142Z,100.00
2023-04-21T03:57:03.370Z,100.00
2023-04-21T04:00:19.297Z,100.00
2023-04-21T04:03:31.652Z,100.00
2023-04-21T04:06:43.801Z,100.00
2023-04-21T04:09:55.787Z,100.00
2023-04-21T04:13:07.864Z,100.00
2023-04-21T04:16:20.049Z,100.00
2023-04-21T04:19:37.610Z,100.00
2023-04-21T04:22:49.664Z,100.00
2023-04-21T04:26:01.850Z,100.00
2023-04-21T04:29:16.559Z,100.00
2023-04-21T04:32:28.942Z,100.00
2023-04-21T04:35:41.249Z,100.00
2023-04-21T04:38:53.298Z,100.00
2023-04-21T04:42:05.571Z,100.00
2023-04-21T04:45:17.702Z,100.00
2023-04-21T04:48:29.804Z,100.00
2023-04-21T04:51:41.796Z,100.00
2023-04-21T04:54:53.918Z,100.00
2023-04-21T04:58:06.506Z,100.00
2023-04-21T05:01:24.852Z,100.00
2023-04-21T05:04:38.123Z,100.00
2023-04-21T05:07:50.492Z,100.00
2023-04-21T05:11:02.644Z,100.00
2023-04-21T05:14:14.911Z,100.00
2023-04-21T05:17:27.671Z,100.00
2023-04-21T05:20:39.983Z,100.00
2023-04-21T05:23:52.133Z,100.00
2023-04-21T05:27:04.341Z,100.00
2023-04-21T05:30:18.391Z,100.00
2023-04-21T05:33:32.125Z,100.00
2023-04-21T05:36:49.266Z,100.00
2023-04-21T05:39:59.723Z,100.00
2023-04-21T05:43:11.967Z,100.00
2023-04-21T05:46:24.179Z,100.00
2023-04-21T05:49:36.334Z,98.30
2023-04-21T05:52:48.612Z,96.82
2023-04-21T05:56:00.722Z,96.47
2023-04-21T05:59:13.049Z,96.34
2023-04-21T06:02:25.419Z,92.62
2023-04-21T06:05:38.320Z,90.46
2023-04-21T06:08:50.500Z,89.17
2023-04-21T06:12:02.859Z,87.02
2023-04-21T06:15:17.086Z,83.69
2023-04-21T06:18:30.838Z,81.31
2023-04-21T06:21:43.251Z,78.33
2023-04-21T06:24:57.853Z,75.59
2023-04-21T06:28:10.997Z,74.93
2023-04-21T06:31:23.347Z,72.08
2023-04-21T06:34:35.780Z,72.13
2023-04-21T06:42:39.121Z,66.71
2023-04-21T06:45:51.638Z,66.99
2023-04-21T06:49:04.884Z,65.74
2023-04-21T06:52:18.293Z,64.36
2023-04-21T06:55:31.275Z,64.68
2023-04-21T06:58:43.307Z,63.42
2023-04-21T07:01:55.428Z,60.85
2023-04-21T07:05:08.062Z,60.32
2023-04-21T07:08:20.105Z,60.85
2023-04-21T07:11:32.155Z,59.33
2023-04-21T07:14:44.450Z,56.84
2023-04-21T07:17:56.684Z,56.12
2023-04-21T07:21:08.971Z,57.72
2023-04-21T07:24:21.014Z,58.86
2023-04-21T07:27:33.275Z,57.08
2023-04-21T07:30:45.408Z,57.67
2023-04-21T07:33:57.702Z,55.87
2023-04-21T07:37:10.048Z,54.20
2023-04-21T07:40:22.416Z,53.54
2023-04-21T07:43:34.717Z,53.64
2023-04-21T07:46:47.090Z,52.69
2023-04-21T07:49:59.501Z,52.08
2023-04-21T07:53:12.027Z,53.02
2023-04-21T07:56:24.424Z,52.47
2023-04-21T07:59:36.651Z,54.47
2023-04-21T08:02:48.936Z,54.02
2023-04-21T08:06:01.648Z,54.68
2023-04-21T08:09:14.130Z,52.16
2023-04-21T08:12:26.293Z,51.20
2023-04-21T08:15:39.041Z,51.10
2023-04-21T08:18:51.259Z,53.74
2023-04-21T08:22:03.452Z,51.35
2023-04-21T08:25:16.463Z,49.13
2023-04-21T08:28:28.669Z,47.45
2023-04-21T08:31:40.852Z,48.43
2023-04-21T08:34:53.391Z,47.23
2023-04-21T08:38:05.611Z,47.42
2023-04-21T08:41:20.203Z,45.77
2023-04-21T08:44:32.567Z,47.60
2023-04-21T08:47:58.343Z,46.35
2023-04-21T08:51:32.125Z,48.09
2023-04-21T08:54:47.639Z,46.58
2023-04-21T08:57:59.859Z,46.15
2023-04-21T09:01:12.433Z,48.03
2023-04-21T09:04:25.569Z,46.55
2023-04-21T09:07:43.158Z,46.59
2023-04-21T09:10:56.618Z,44.85
2023-04-21T09:14:10.117Z,45.11
2023-04-21T09:17:26.013Z,43.14
2023-04-21T09:20:38.180Z,44.90
2023-04-21T09:23:52.961Z,42.82
2023-04-21T09:27:06.893Z,43.02
2023-04-21T09:30:22.872Z,40.80
2023-04-21T09:33:49.521Z,42.72
2023-04-21T09:36:53.689Z,39.81
2023-04-21T09:40:06.966Z,41.71
2023-04-21T09:43:19.014Z,37.94
2023-04-21T09:46:31.730Z,36.55
2023-04-21T09:49:46.877Z,37.21
2023-04-21T09:53:02.456Z,35.61
2023-04-21T09:56:18.476Z,39.35
2023-04-21T09:59:36.916Z,34.04
2023-04-21T10:02:54.363Z,32.28
2023-04-21T10:06:07.319Z,33.15
2023-04-21T10:09:22.280Z,33.89
2023-04-21T10:12:35.278Z,32.32
2023-04-21T10:15:48.182Z,32.70
2023-04-21T10:19:00.393Z,34.43
2023-04-21T10:22:14.156Z,33.93
2023-04-21T10:25:27.138Z,35.16
2023-04-21T10:28:51.179Z,34.35
2023-04-21T10:32:03.744Z,35.02
2023-04-21T10:35:20.057Z,32.61
2023-04-21T10:41:49.462Z,33.69
2023-04-21T10:45:14.794Z,33.59
2023-04-21T10:48:29.368Z,34.11
2023-04-21T10:52:16.696Z,34.58
2023-04-21T10:55:34.335Z,35.36
2023-04-21T10:58:47.429Z,34.20
2023-04-21T11:02:00.788Z,35.68
2023-04-21T11:05:15.377Z,36.07
2023-04-21T11:08:27.684Z,35.01
2023-04-21T11:11:40.684Z,34.61
2023-04-21T11:14:53.851Z,32.97
2023-04-21T11:18:06.162Z,32.68
2023-04-21T11:21:22.747Z,35.42
2023-04-21T11:24:35.247Z,35.18
2023-04-21T11:27:47.495Z,36.78
2023-04-21T11:30:59.660Z,36.49
2023-04-21T11:34:12.976Z,37.82
2023-04-21T11:37:32.110Z,39.16
2023-04-21T11:40:55.237Z,39.98
2023-04-21T11:44:08.183Z,37.56
2023-04-21T11:47:25.422Z,39.19
2023-04-21T11:50:42.012Z,37.88
2023-04-21T11:53:57.326Z,38.75
2023-04-21T11:57:09.661Z,36.36
2023-04-21T12:00:24.873Z,39.15
2023-04-21T12:03:39.113Z,37.80
2023-04-21T12:06:54.520Z,38.91
2023-04-21T12:10:11.864Z,38.49
2023-04-21T12:13:31.048Z,37.43
2023-04-21T12:16:44.903Z,38.32
2023-04-21T12:19:57.209Z,37.10
2023-04-21T12:23:09.176Z,36.44
2023-04-21T12:26:21.227Z,36.24
2023-04-21T12:29:35.253Z,34.99
2023-04-21T12:32:47.897Z,38.42
2023-04-21T12:36:00.239Z,38.24
2023-04-21T12:39:13.899Z,34.69
2023-04-21T12:42:25.967Z,34.72
2023-04-21T12:45:38.206Z,34.33
2023-04-21T12:48:52.616Z,35.67
2023-04-21T12:52:06.094Z,35.51
2023-04-21T12:55:18.950Z,34.82
2023-04-21T12:58:30.990Z,36.66
2023-04-21T13:01:44.312Z,36.19
2023-04-21T13:04:56.588Z,34.76
2023-04-21T13:08:08.926Z,33.05
2023-04-21T13:11:20.935Z,34.32
2023-04-21T13:14:33.745Z,35.54
2023-04-21T13:17:46.560Z,34.16
2023-04-21T13:20:58.587Z,37.79
2023-04-21T13:24:14.611Z,36.20
2023-04-21T13:27:26.391Z,36.14
2023-04-21T13:30:39.192Z,34.52
2023-04-21T13:33:53.536Z,34.41
2023-04-21T13:37:06.250Z,36.39
2023-04-21T13:40:19.789Z,35.05
2023-04-21T13:43:32.157Z,32.80
2023-04-21T13:46:44.688Z,33.52
2023-04-21T13:49:56.974Z,33.16
2023-04-21T13:53:09.126Z,33.85
2023-04-21T13:56:22.057Z,33.97
2023-04-21T13:59:34.486Z,34.80
2023-04-21T14:02:47.194Z,33.00
2023-04-21T14:05:59.587Z,34.45
2023-04-21T14:09:12.268Z,35.10
2023-04-21T14:12:26.408Z,32.53
2023-04-21T14:15:39.290Z,34.61
2023-04-21T14:18:51.153Z,32.96
2023-04-21T14:22:03.499Z,31.81
2023-04-21T14:25:16.741Z,33.54
2023-04-21T14:28:28.818Z,33.16
2023-04-21T14:31:41.116Z,35.14
2023-04-21T14:34:53.963Z,33.12
2023-04-21T14:38:06.779Z,33.24
2023-04-21T14:41:18.996Z,33.19
2023-04-21T14:44:30.883Z,32.91
2023-04-21T14:47:43.343Z,34.70
2023-04-21T14:50:55.812Z,34.02
2023-04-21T14:54:08.043Z,33.01
2023-04-21T14:57:22.076Z,32.90
2023-04-21T15:00:35.043Z,34.42
2023-04-21T15:03:47.896Z,33.28
2023-04-21T15:07:01.862Z,35.11
2023-04-21T15:10:17.361Z,35.19
2023-04-21T15:13:29.698Z,37.52
2023-04-21T15:16:41.824Z,36.36
2023-04-21T15:19:54.090Z,36.31
2023-04-21T15:23:06.461Z,38.07
2023-04-21T15:26:18.626Z,34.06
2023-04-21T15:29:30.661Z,34.59
2023-04-21T15:32:42.797Z,38.08
2023-04-21T15:35:54.965Z,35.85
2023-04-21T15:39:07.120Z,36.71
2023-04-21T15:42:19.653Z,38.56
2023-04-21T15:45:32.138Z,37.16
2023-04-21T15:48:44.505Z,38.43
2023-04-21T15:51:56.948Z,38.26
2023-04-21T15:55:10.538Z,36.34
2023-04-21T15:58:22.693Z,39.29
2023-04-21T16:01:35.043Z,39.69
2023-04-21T16:04:47.455Z,41.19
2023-04-21T16:07:59.785Z,38.06
2023-04-21T16:11:12.780Z,39.06
2023-04-21T16:14:25.878Z,41.31
2023-04-21T16:17:38.426Z,37.24
2023-04-21T16:20:51.017Z,38.38
2023-04-21T16:24:05.288Z,39.34
2023-04-21T16:27:17.644Z,39.91
2023-04-21T16:30:30.089Z,40.76
2023-04-21T16:33:42.084Z,40.51
2023-04-21T16:36:54.515Z,39.98
2023-04-21T16:40:07.896Z,43.24
2023-04-21T16:43:20.250Z,40.39
2023-04-21T16:46:32.580Z,40.79
2023-04-21T16:49:44.693Z,38.67
2023-04-21T16:52:56.887Z,40.04
2023-04-21T16:56:09.317Z,39.55
2023-04-21T16:59:24.009Z,40.00
2023-04-21T17:02:37.322Z,41.58
2023-04-21T17:05:50.257Z,41.21
2023-04-21T17:09:03.669Z,43.60
2023-04-21T17:12:15.640Z,42.57
2023-04-21T17:15:27.740Z,42.89
2023-04-21T17:18:40.664Z,43.35
2023-04-21T17:21:52.618Z,44.33
2023-04-21T17:25:04.702Z,44.58
2023-04-21T17:28:17.274Z,46.14
2023-04-21T17:31:29.677Z,45.83
2023-04-21T17:34:41.999Z,45.14
2023-04-21T17:37:54.256Z,48.27
2023-04-21T17:41:08.049Z,49.20
2023-04-21T17:44:20.107Z,51.27
2023-04-21T17:47:33.570Z,52.97
2023-04-21T17:50:45.901Z,52.70
2023-04-21T17:53:57.896Z,52.87
2023-04-21T17:57:11.722Z,51.37
2023-04-21T18:00:26.074Z,51.55
2023-04-21T18:03:40.237Z,53.22
2023-04-21T18:06:53.386Z,53.61
2023-04-21T18:10:05.451Z,53.59
2023-04-21T18:13:17.902Z,51.64
2023-04-21T18:16:30.166Z,52.11
2023-04-21T18:19:42.566Z,52.72
2023-04-21T18:22:56.780Z,52.41
2023-04-21T18:26:09.185Z,53.33
2023-04-21T18:29:22.124Z,53.08
2023-04-21T18:32:37.435Z,52.47
2023-04-21T18:35:50.166Z,51.57
2023-04-21T18:39:02.422Z,52.48
2023-04-21T18:42:14.652Z,55.41
2023-04-21T18:45:27.079Z,57.54
2023-04-21T18:48:39.990Z,57.99
2023-04-21T18:51:52.479Z,58.28
2023-04-21T18:55:04.620Z,56.62
2023-04-21T18:58:16.794Z,56.56
2023-04-21T19:01:29.533Z,58.47
2023-04-21T19:04:44.039Z,57.02
2023-04-21T19:07:56.382Z,57.81
2023-04-21T19:11:10.328Z,58.06
2023-04-21T19:14:22.835Z,60.93
2023-04-21T19:17:35.281Z,62.31
2023-04-21T19:20:48.087Z,63.72
2023-04-21T19:24:00.283Z,64.75
2023-04-21T19:27:12.783Z,64.89
2023-04-21T19:30:25.985Z,64.86
2023-04-21T19:33:38.249Z,65.86
2023-04-21T19:36:52.080Z,66.23
2023-04-21T19:40:04.514Z,66.51
2023-04-21T19:43:17.248Z,69.02
2023-04-21T19:46:29.969Z,66.95
2023-04-21T19:49:42.389Z,69.15
2023-04-21T19:52:54.858Z,69.82
2023-04-21T19:56:07.781Z,70.73
2023-04-21T19:59:20.099Z,70.41
2023-04-21T20:02:32.596Z,71.61
2023-04-21T20:05:45.922Z,70.47
2023-04-21T20:08:58.301Z,71.56
2023-04-21T20:12:10.800Z,71.20
2023-04-21T20:15:23.851Z,71.20
2023-04-21T20:18:36.495Z,70.97
2023-04-21T20:21:50.059Z,72.76
2023-04-21T20:25:02.340Z,72.98
2023-04-21T20:28:14.493Z,70.83
2023-04-21T20:31:27.231Z,72.46
2023-04-21T20:34:39.709Z,71.82
2023-04-21T20:37:53.757Z,72.61
2023-04-21T20:41:06.111Z,72.07
2023-04-21T20:44:20.705Z,73.90
2023-04-21T20:47:33.974Z,73.48
2023-04-21T20:50:48.482Z,76.46
2023-04-21T20:54:01.073Z,77.31
2023-04-21T20:57:13.334Z,75.23
2023-04-21T21:00:26.770Z,75.22
2023-04-21T21:03:39.468Z,76.72
2023-04-21T21:06:52.216Z,77.45
2023-04-21T21:10:05.154Z,77.61
2023-04-21T21:13:17.533Z,79.20
2023-04-21T21:16:30.129Z,78.99
2023-04-21T21:19:42.447Z,79.86
2023-04-21T21:22:55.166Z,79.65
2023-04-21T21:26:08.028Z,80.20
2023-04-21T21:29:20.499Z,79.75
2023-04-21T21:32:33.050Z,79.07
2023-04-21T21:35:45.525Z,80.41
2023-04-21T21:38:57.440Z,81.32
2023-04-21T21:42:09.972Z,81.61
2023-04-21T21:45:22.320Z,82.96
2023-04-21T21:48:34.692Z,83.21
2023-04-21T21:51:46.762Z,83.11
2023-04-21T21:54:58.976Z,81.87
2023-04-21T21:58:11.393Z,81.15
2023-04-21T22:01:23.520Z,79.91
2023-04-21T22:04:36.071Z,79.49
2023-04-21T22:07:50.967Z,80.32
2023-04-21T22:11:03.871Z,79.38
2023-04-21T22:14:22.523Z,80.14
2023-04-21T22:17:31.075Z,81.83
2023-04-21T22:20:43.544Z,83.08
2023-04-21T22:23:56.131Z,83.21
2023-04-21T22:27:08.440Z,83.09
2023-04-21T22:30:21.284Z,82.91
2023-04-21T22:33:33.439Z,83.46
2023-04-21T22:36:45.460Z,83.41
2023-04-21T22:39:57.864Z,82.59
2023-04-21T22:43:10.371Z,83.69
2023-04-21T22:46:22.905Z,88.20
2023-04-21T22:49:35.170Z,85.61
2023-04-21T22:52:47.487Z,85.22
2023-04-21T22:56:00.154Z,84.50
2023-04-21T22:59:12.464Z,83.22
2023-04-21T23:02:24.874Z,83.18
2023-04-21T23:05:37.567Z,83.39
2023-04-21T23:08:49.561Z,84.27
2023-04-21T23:12:01.672Z,85.78
2023-04-21T23:15:16.028Z,86.31
2023-04-21T23:18:28.028Z,86.15
2023-04-21T23:21:40.372Z,86.32
2023-04-21T23:24:52.897Z,86.06
2023-04-21T23:28:05.049Z,89.53
2023-04-21T23:31:17.040Z,89.28
2023-04-21T23:34:29.279Z,89.58
2023-04-21T23:37:41.788Z,93.79
2023-04-21T23:40:53.767Z,93.12
2023-04-21T23:44:06.103Z,92.03
2023-04-21T23:47:18.176Z,90.76
2023-04-21T23:50:30.451Z,91.95
2023-04-21T23:53:42.674Z,92.26
2023-04-21T23:56:54.815Z,92.08
